Station: EBLB - 23/03/2017 09:55Z (il y a 34 minutes)
EBLB 230955Z AUTO 11006KT 9999 NCD 09/M00 Q1013 BLU
Vent du 110º - 6 kt
Visibilité > 10 km
Pas de nuages détectés
Température: +09ºC - Point de rosée: -00ºC - QNH: 1013 hPa
Code couleur militaire: BLU (conditions VMC)